Time;durP1;ratioP1;P1;durP2;ratioP2;P2;SDS_P1;SDS_P2;PMS_P1;PMS_P2;Temp;Humidity;BMP_temperature;BMP_pressure;BME280_temperature;BME280_humidity;BME280_pressure;Samples;Min_cycle;Max_cycle;Signal;HPM_P1;HPM_P2
2022/11/29 00:00:44;;;;;;;;;;;;;;;;;;4901869;29;19970;-88
2022/11/29 00:03:09;;;;;;;;;;;;;;;;;;4902115;29;19922;-87
2022/11/29 00:05:34;;;;;;;;;;;;;;;;;;4933592;29;19923;-86
2022/11/29 00:08:00;;;;;;;;;;;;;;;;;;4886088;29;19951;-86
2022/11/29 00:10:25;;;;;;;;;;;;;;;;;;4933317;29;19918;-87
2022/11/29 00:12:51;;;;;;;;;;;;;;;;;;4901776;29;19951;-85
2022/11/29 00:15:16;;;;;;;;;;;;;;;;;;4919649;29;19911;-87
2022/11/29 00:17:42;;;;;;;;;;;;;;;;;;4919552;29;19923;-86
2022/11/29 00:20:09;;;;;;;;;;;;;;;;;;4902648;29;19922;-84
2022/11/29 00:22:36;;;;;;;;;;;;;;;;;;4888236;29;19919;-86
2022/11/29 00:25:01;;;;;;;;;;;;;;;;;;4918434;29;19919;-89
2022/11/29 00:27:26;;;;;;;;;;;;;;;;;;4902654;29;20406;-87
2022/11/29 00:29:52;;;;;;;;;;;;;;;;;;4902000;29;19979;-84
2022/11/29 00:32:17;;;;;;;;;;;;;;;;;;4901958;29;19915;-84
2022/11/29 00:34:45;;;;;;;;;;;;;;;;;;4885547;29;20052;-87
2022/11/29 00:37:10;;;;;;;;;;;;;;;;;;4929002;29;19970;-85
2022/11/29 00:39:36;;;;;;;;;;;;;;;;;;4937369;29;20255;-86
2022/11/29 00:42:01;;;;;;;;;;;;;;;;;;4920112;29;19923;-87
2022/11/29 00:44:27;;;;;;;;;;;;;;;;;;4937015;29;20402;-88
2022/11/29 00:46:52;;;;;;;;;;;;;;;;;;4936733;29;20001;-86
2022/11/29 00:49:18;;;;;;;;;;;;;;;;;;4920520;29;20409;-84
2022/11/29 00:51:43;;;;;;;;;;;;;;;;;;4936046;29;20305;-87
2022/11/29 00:54:08;;;;;;;;;;;;;;;;;;4904159;29;20017;-86
2022/11/29 00:56:34;;;;;;;;;;;;;;;;;;4936964;29;19915;-81
2022/11/29 00:58:59;;;;;;;;;;;;;;;;;;4904510;29;19915;-85
2022/11/29 01:01:25;;;;;;;;;;;;;;;;;;4936211;29;19997;-86
2022/11/29 01:03:50;;;;;;;;;;;;;;;;;;4904348;29;19915;-85
2022/11/29 01:06:16;;;;;;;;;;;;;;;;;;4920749;29;19919;-87
2022/11/29 01:08:41;;;;;;;;;;;;;;;;;;4937275;29;19939;-89
2022/11/29 01:11:07;;;;;;;;;;;;;;;;;;4936972;29;19921;-88
2022/11/29 01:13:32;;;;;;;;;;;;;;;;;;4936667;29;19919;-88
2022/11/29 01:15:58;;;;;;;;;;;;;;;;;;4919566;29;20393;-86
2022/11/29 01:18:23;;;;;;;;;;;;;;;;;;4936230;29;20310;-88
2022/11/29 01:20:49;;;;;;;;;;;;;;;;;;4920056;29;19919;-88
2022/11/29 01:23:14;;;;;;;;;;;;;;;;;;4935419;29;20298;-86
2022/11/29 01:25:39;;;;;;;;;;;;;;;;;;4919996;29;19997;-82
2022/11/29 01:28:05;;;;;;;;;;;;;;;;;;4936050;29;20400;-85
2022/11/29 01:30:30;;;;;;;;;;;;;;;;;;4919925;29;19915;-87
2022/11/29 01:32:56;;;;;;;;;;;;;;;;;;4935399;29;19915;-83
2022/11/29 01:35:21;;;;;;;;;;;;;;;;;;4920057;29;19941;-87
2022/11/29 01:37:47;;;;;;;;;;;;;;;;;;4887285;29;20017;-85
2022/11/29 01:40:13;;;;;;;;;;;;;;;;;;4916624;29;19986;-87
2022/11/29 01:42:38;;;;;;;;;;;;;;;;;;4918215;29;19915;-84
2022/11/29 01:45:04;;;;;;;;;;;;;;;;;;4920245;29;20282;-87
2022/11/29 01:47:29;;;;;;;;;;;;;;;;;;4935706;29;19978;-88
2022/11/29 01:49:55;;;;;;;;;;;;;;;;;;4935944;29;20375;-87
2022/11/29 01:52:21;;;;;;;;;;;;;;;;;;4922884;29;19915;-88
2022/11/29 01:54:46;;;;;;;;;;;;;;;;;;4939976;29;20020;-83
2022/11/29 01:57:12;;;;;;;;;;;;;;;;;;4922725;29;19921;-86
2022/11/29 01:59:37;;;;;;;;;;;;;;;;;;4938622;29;19937;-86
2022/11/29 02:02:03;;;;;;;;;;;;;;;;;;4938876;29;19958;-88
2022/11/29 02:04:28;;;;;;;;;;;;;;;;;;4939045;29;20454;-87
2022/11/29 02:06:54;;;;;;;;;;;;;;;;;;4938822;29;20292;-86
2022/11/29 02:09:19;;;;;;;;;;;;;;;;;;4938400;29;19922;-83
2022/11/29 02:11:45;;;;;;;;;;;;;;;;;;4940404;23;20415;-81
2022/11/29 02:14:10;;;;;;;;;;;;;;;;;;4963529;29;19938;-81
2022/11/29 02:16:35;;;;;;;;;;;;;;;;;;4965094;29;19930;-81
2022/11/29 02:19:01;;;;;;;;;;;;;;;;;;4962531;29;19937;-81
2022/11/29 02:21:26;;;;;;;;;;;;;;;;;;4964523;29;20417;-79
2022/11/29 02:23:51;;;;;;;;;;;;;;;;;;4965069;29;20001;-79
2022/11/29 02:26:17;;;;;;;;;;;;;;;;;;4967674;29;19922;-80
2022/11/29 02:28:42;;;;;;;;;;;;;;;;;;4963329;28;19942;-81
2022/11/29 02:31:08;;;;;;;;;;;;;;;;;;4961365;29;19925;-81
2022/11/29 02:33:33;;;;;;;;;;;;;;;;;;4961617;29;19972;-80
2022/11/29 02:35:58;;;;;;;;;;;;;;;;;;4957974;29;19922;-81
2022/11/29 02:38:24;;;;;;;;;;;;;;;;;;4957257;29;19922;-80
2022/11/29 02:40:49;;;;;;;;;;;;;;;;;;4943273;29;19919;-81
2022/11/29 02:43:14;;;;;;;;;;;;;;;;;;4942771;29;19915;-81
2022/11/29 02:45:40;;;;;;;;;;;;;;;;;;4958553;29;20339;-81
2022/11/29 02:48:05;;;;;;;;;;;;;;;;;;4942334;29;19939;-81
2022/11/29 02:50:31;;;;;;;;;;;;;;;;;;4942645;29;19915;-80
2022/11/29 02:52:56;;;;;;;;;;;;;;;;;;4950211;28;19950;-80
2022/11/29 02:55:21;;;;;;;;;;;;;;;;;;4960195;29;19911;-81
2022/11/29 02:57:47;;;;;;;;;;;;;;;;;;4961844;29;19915;-81
2022/11/29 03:00:12;;;;;;;;;;;;;;;;;;4961593;29;19914;-80
2022/11/29 03:02:37;;;;;;;;;;;;;;;;;;4961899;29;19929;-80
2022/11/29 03:05:03;;;;;;;;;;;;;;;;;;4961635;29;20434;-81
2022/11/29 03:07:28;;;;;;;;;;;;;;;;;;4961480;29;19921;-80
2022/11/29 03:09:54;;;;;;;;;;;;;;;;;;4962860;29;19993;-81
2022/11/29 03:12:19;;;;;;;;;;;;;;;;;;4962220;29;19918;-80
2022/11/29 03:14:44;;;;;;;;;;;;;;;;;;4962290;29;20378;-80
2022/11/29 03:17:10;;;;;;;;;;;;;;;;;;4945401;29;19968;-80
2022/11/29 03:19:38;;;;;;;;;;;;;;;;;;4961192;29;20397;-80
2022/11/29 03:22:03;;;;;;;;;;;;;;;;;;4946723;29;19919;-80
2022/11/29 03:24:29;;;;;;;;;;;;;;;;;;4946585;29;19994;-81
2022/11/29 03:26:54;;;;;;;;;;;;;;;;;;4964063;28;19993;-80
2022/11/29 03:29:20;;;;;;;;;;;;;;;;;;4962954;28;19914;-83
2022/11/29 03:31:45;;;;;;;;;;;;;;;;;;4963449;28;19914;-80
2022/11/29 03:34:11;;;;;;;;;;;;;;;;;;4961441;29;20005;-81
2022/11/29 03:36:36;;;;;;;;;;;;;;;;;;4953107;29;19958;-82
2022/11/29 03:39:01;;;;;;;;;;;;;;;;;;4968936;28;19915;-81
2022/11/29 03:41:27;;;;;;;;;;;;;;;;;;4943295;29;19968;-80
2022/11/29 03:43:52;;;;;;;;;;;;;;;;;;4963243;29;19982;-81
2022/11/29 03:46:17;;;;;;;;;;;;;;;;;;4961970;29;19918;-80
2022/11/29 03:48:43;;;;;;;;;;;;;;;;;;4962732;29;19915;-80
2022/11/29 03:51:08;;;;;;;;;;;;;;;;;;4962679;29;19926;-81
2022/11/29 03:53:34;;;;;;;;;;;;;;;;;;4929007;29;19914;-80
2022/11/29 03:55:59;;;;;;;;;;;;;;;;;;4957971;29;19974;-81
2022/11/29 03:58:24;;;;;;;;;;;;;;;;;;4942771;29;20291;-82
2022/11/29 04:00:50;;;;;;;;;;;;;;;;;;4939801;29;19918;-81
2022/11/29 04:03:15;;;;;;;;;;;;;;;;;;4940707;29;19915;-82
2022/11/29 04:05:41;;;;;;;;;;;;;;;;;;4939883;29;19970;-80
2022/11/29 04:08:06;;;;;;;;;;;;;;;;;;4941485;29;20410;-81
2022/11/29 04:10:31;;;;;;;;;;;;;;;;;;4939405;29;19966;-80
2022/11/29 04:12:57;;;;;;;;;;;;;;;;;;4955702;29;19929;-80
2022/11/29 04:15:22;;;;;;;;;;;;;;;;;;4941143;29;20457;-81
2022/11/29 04:17:47;;;;;;;;;;;;;;;;;;4955035;29;19915;-80
2022/11/29 04:20:13;;;;;;;;;;;;;;;;;;4942738;29;19954;-81
2022/11/29 04:22:38;;;;;;;;;;;;;;;;;;4939953;29;20374;-80
2022/11/29 04:25:03;;;;;;;;;;;;;;;;;;4957627;29;20014;-81
2022/11/29 04:27:29;;;;;;;;;;;;;;;;;;4942464;29;20004;-81
2022/11/29 04:29:55;;;;;;;;;;;;;;;;;;4943015;29;19942;-81
2022/11/29 04:32:21;;;;;;;;;;;;;;;;;;4943654;29;19915;-82
2022/11/29 04:34:46;;;;;;;;;;;;;;;;;;4955711;29;19922;-80
2022/11/29 04:37:12;;;;;;;;;;;;;;;;;;4940570;29;19918;-81
2022/11/29 04:39:37;;;;;;;;;;;;;;;;;;4957219;29;20013;-80
2022/11/29 04:42:02;;;;;;;;;;;;;;;;;;4941033;29;19919;-81
2022/11/29 04:44:28;;;;;;;;;;;;;;;;;;4940570;29;20370;-81
2022/11/29 04:46:53;;;;;;;;;;;;;;;;;;4940314;29;19915;-82
2022/11/29 04:49:19;;;;;;;;;;;;;;;;;;4942889;29;19982;-82
2022/11/29 04:51:44;;;;;;;;;;;;;;;;;;4957498;29;19926;-81
2022/11/29 04:54:09;;;;;;;;;;;;;;;;;;4963298;29;19922;-82
2022/11/29 04:56:35;;;;;;;;;;;;;;;;;;4965004;29;19915;-82
2022/11/29 04:59:00;;;;;;;;;;;;;;;;;;4965072;29;19915;-81
2022/11/29 05:01:25;;;;;;;;;;;;;;;;;;4965439;29;19918;-80
2022/11/29 05:03:51;;;;;;;;;;;;;;;;;;4965936;29;19914;-81
2022/11/29 05:06:16;;;;;;;;;;;;;;;;;;4965839;28;19914;-82
2022/11/29 05:08:42;;;;;;;;;;;;;;;;;;4966946;28;19914;-81
2022/11/29 05:11:07;;;;;;;;;;;;;;;;;;4967256;29;19918;-81
2022/11/29 05:13:32;;;;;;;;;;;;;;;;;;4965775;28;20402;-83
2022/11/29 05:15:58;;;;;;;;;;;;;;;;;;4965723;28;19919;-81
2022/11/29 05:18:23;;;;;;;;;;;;;;;;;;4968762;29;20268;-82
2022/11/29 05:20:48;;;;;;;;;;;;;;;;;;4952064;29;19927;-83
2022/11/29 05:23:14;;;;;;;;;;;;;;;;;;4971375;29;20358;-81
2022/11/29 05:25:39;;;;;;;;;;;;;;;;;;4956688;29;19914;-81
2022/11/29 05:28:05;;;;;;;;;;;;;;;;;;4969840;28;20290;-81
2022/11/29 05:30:30;;;;;;;;;;;;;;;;;;4966357;29;19918;-82
2022/11/29 05:32:56;;;;;;;;;;;;;;;;;;4966225;29;20414;-82
2022/11/29 05:35:21;;;;;;;;;;;;;;;;;;4952234;29;19915;-81
2022/11/29 05:37:47;;;;;;;;;;;;;;;;;;4948092;29;20294;-81
2022/11/29 05:40:12;;;;;;;;;;;;;;;;;;4933492;29;19954;-82
2022/11/29 05:42:38;;;;;;;;;;;;;;;;;;4949359;29;20413;-82
2022/11/29 05:45:03;;;;;;;;;;;;;;;;;;4951145;29;19911;-82
2022/11/29 05:47:29;;;;;;;;;;;;;;;;;;4961536;29;20378;-80
2022/11/29 05:49:54;;;;;;;;;;;;;;;;;;4946823;29;19915;-80
2022/11/29 05:52:19;;;;;;;;;;;;;;;;;;4950017;29;19944;-80
2022/11/29 05:54:45;;;;;;;;;;;;;;;;;;4962355;29;19915;-80
2022/11/29 05:57:11;;;;;;;;;;;;;;;;;;4963173;29;20182;-81
2022/11/29 05:59:36;;;;;;;;;;;;;;;;;;4965772;28;20343;-80
2022/11/29 06:02:02;;;;;;;;;;;;;;;;;;4964471;29;19942;-82
2022/11/29 06:04:27;;;;;;;;;;;;;;;;;;4966126;29;19964;-83
2022/11/29 06:06:53;;;;;;;;;;;;;;;;;;4964613;28;19915;-82
2022/11/29 06:09:18;;;;;;;;;;;;;;;;;;4964077;29;19925;-82
2022/11/29 06:11:44;;;;;;;;;;;;;;;;;;4966527;29;19921;-81
2022/11/29 06:14:11;;;;;;;;;;;;;;;;;;4967602;29;19915;-83
2022/11/29 06:16:37;;;;;;;;;;;;;;;;;;4966711;29;19911;-82
2022/11/29 06:19:03;;;;;;;;;;;;;;;;;;4965458;29;19934;-83
2022/11/29 06:21:28;;;;;;;;;;;;;;;;;;4971313;29;20009;-82
2022/11/29 06:23:54;;;;;;;;;;;;;;;;;;4954505;29;19936;-81
2022/11/29 06:26:21;;;;;;;;;;;;;;;;;;4954711;29;19927;-83
2022/11/29 06:28:46;;;;;;;;;;;;;;;;;;4971880;28;20327;-82
2022/11/29 06:31:12;;;;;;;;;;;;;;;;;;4968554;29;19914;-83
2022/11/29 06:33:37;;;;;;;;;;;;;;;;;;4952685;29;19926;-82
2022/11/29 06:36:03;;;;;;;;;;;;;;;;;;4971063;28;20309;-82
2022/11/29 06:38:28;;;;;;;;;;;;;;;;;;4970083;29;19942;-81
2022/11/29 06:40:54;;;;;;;;;;;;;;;;;;4952171;29;19987;-83
2022/11/29 06:43:19;;;;;;;;;;;;;;;;;;4954471;29;19968;-83
2022/11/29 06:45:45;;;;;;;;;;;;;;;;;;4970284;29;19967;-82
2022/11/29 06:48:10;;;;;;;;;;;;;;;;;;4969349;29;19985;-83
2022/11/29 06:50:36;;;;;;;;;;;;;;;;;;4967842;29;20378;-82
2022/11/29 06:53:01;;;;;;;;;;;;;;;;;;4968143;29;19915;-82
2022/11/29 06:55:26;;;;;;;;;;;;;;;;;;4966862;29;19925;-83
2022/11/29 06:57:52;;;;;;;;;;;;;;;;;;4969167;28;19915;-83
2022/11/29 07:00:17;;;;;;;;;;;;;;;;;;4966337;29;19918;-81
2022/11/29 07:02:43;;;;;;;;;;;;;;;;;;4966603;29;19918;-81
2022/11/29 07:05:08;;;;;;;;;;;;;;;;;;4950852;29;19919;-81
2022/11/29 07:07:34;;;;;;;;;;;;;;;;;;4948802;29;19918;-83
2022/11/29 07:09:59;;;;;;;;;;;;;;;;;;4967009;29;19993;-81
2022/11/29 07:12:24;;;;;;;;;;;;;;;;;;4968203;28;19919;-82
2022/11/29 07:14:50;;;;;;;;;;;;;;;;;;4969136;28;20193;-83
2022/11/29 07:17:15;;;;;;;;;;;;;;;;;;4965672;29;19920;-82
2022/11/29 07:19:41;;;;;;;;;;;;;;;;;;4967103;29;20396;-81
2022/11/29 07:22:06;;;;;;;;;;;;;;;;;;4951126;29;20271;-81
2022/11/29 07:24:32;;;;;;;;;;;;;;;;;;4966456;29;19926;-81
2022/11/29 07:26:57;;;;;;;;;;;;;;;;;;4967812;29;19958;-82
2022/11/29 07:29:22;;;;;;;;;;;;;;;;;;4969206;29;19978;-82
2022/11/29 07:31:48;;;;;;;;;;;;;;;;;;4964213;29;19958;-82
2022/11/29 07:34:13;;;;;;;;;;;;;;;;;;4947269;29;20521;-82
2022/11/29 07:36:42;;;;;;;;;;;;;;;;;;4946996;29;20005;-83
2022/11/29 07:39:07;;;;;;;;;;;;;;;;;;4947553;29;20307;-81
2022/11/29 07:41:33;;;;;;;;;;;;;;;;;;4931522;29;19919;-83
2022/11/29 07:43:58;;;;;;;;;;;;;;;;;;4948322;29;19914;-80
2022/11/29 07:46:24;;;;;;;;;;;;;;;;;;4947179;29;20446;-81
2022/11/29 07:48:49;;;;;;;;;;;;;;;;;;4947117;29;20294;-81
2022/11/29 07:51:15;;;;;;;;;;;;;;;;;;4945016;29;20431;-81
2022/11/29 07:53:40;;;;;;;;;;;;;;;;;;4946553;29;19914;-81
2022/11/29 07:56:06;;;;;;;;;;;;;;;;;;4949996;29;19915;-81
2022/11/29 07:58:31;;;;;;;;;;;;;;;;;;4947673;29;20294;-81
2022/11/29 08:00:57;;;;;;;;;;;;;;;;;;4945635;29;20343;-81
2022/11/29 08:03:22;;;;;;;;;;;;;;;;;;4942053;29;20290;-80
2022/11/29 08:05:47;;;;;;;;;;;;;;;;;;4938788;29;19919;-78
2022/11/29 08:08:13;;;;;;;;;;;;;;;;;;4936617;29;20397;-79
2022/11/29 08:10:38;;;;;;;;;;;;;;;;;;4936390;29;20038;-80
2022/11/29 08:13:03;;;;;;;;;;;;;;;;;;4937814;29;20375;-79
2022/11/29 08:15:29;;;;;;;;;;;;;;;;;;4936517;29;19915;-81
2022/11/29 08:17:54;;;;;;;;;;;;;;;;;;4935613;29;19954;-79
2022/11/29 08:20:20;;;;;;;;;;;;;;;;;;4936813;29;19914;-80
2022/11/29 08:22:45;;;;;;;;;;;;;;;;;;4936212;29;19918;-80
2022/11/29 08:25:28;;;;;;;;;;;;;;;;;;4949660;29;19942;-79
2022/11/29 08:27:54;;;;;;;;;;;;;;;;;;4955060;29;19920;-79
2022/11/29 08:30:22;;;;;;;;;;;;;;;;;;4953811;29;19997;-78
2022/11/29 08:32:48;;;;;;;;;;;;;;;;;;4936690;29;19953;-78
2022/11/29 08:35:13;;;;;;;;;;;;;;;;;;4940250;28;19954;-78
2022/11/29 08:37:39;;;;;;;;;;;;;;;;;;4934359;29;19915;-79
2022/11/29 08:40:04;;;;;;;;;;;;;;;;;;4950558;29;20283;-79
2022/11/29 08:42:29;;;;;;;;;;;;;;;;;;4935240;29;19942;-78
2022/11/29 08:44:55;;;;;;;;;;;;;;;;;;4935715;29;20415;-78
2022/11/29 08:47:36;;;;;;;;;;;;;;;;;;4934011;29;19922;-78
2022/11/29 08:50:01;;;;;;;;;;;;;;;;;;4935517;29;19962;-77
2022/11/29 08:55:11;;;;;;;;;;;;;;;;;;4954991;28;19921;-79
2022/11/29 08:57:36;;;;;;;;;;;;;;;;;;4953360;29;19914;-77
2022/11/29 09:00:02;;;;;;;;;;;;;;;;;;4953172;29;20359;-79
2022/11/29 09:02:29;;;;;;;;;;;;;;;;;;4954057;28;19918;-78
2022/11/29 09:04:54;;;;;;;;;;;;;;;;;;4953216;29;19921;-80
2022/11/29 09:07:19;;;;;;;;;;;;;;;;;;4955411;28;20301;-79
2022/11/29 09:09:45;;;;;;;;;;;;;;;;;;4964906;28;19915;-79
2022/11/29 09:12:10;;;;;;;;;;;;;;;;;;4955403;28;19925;-79
2022/11/29 09:14:35;;;;;;;;;;;;;;;;;;4954004;28;19914;-78
2022/11/29 09:17:01;;;;;;;;;;;;;;;;;;4953955;29;20387;-78
2022/11/29 09:19:26;;;;;;;;;;;;;;;;;;4952824;29;19921;-80
2022/11/29 09:21:52;;;;;;;;;;;;;;;;;;4954203;28;19973;-79
2022/11/29 09:24:18;;;;;;;;;;;;;;;;;;4953890;29;20424;-81
2022/11/29 09:26:47;;;;;;;;;;;;;;;;;;4954052;28;19914;-79
2022/11/29 09:29:12;;;;;;;;;;;;;;;;;;4954161;28;19915;-79
2022/11/29 09:31:38;;;;;;;;;;;;;;;;;;4937310;29;19918;-80
2022/11/29 09:34:04;;;;;;;;;;;;;;;;;;4953889;29;19915;-79
2022/11/29 09:36:29;;;;;;;;;;;;;;;;;;4933523;29;19915;-79
2022/11/29 09:38:54;;;;;;;;;;;;;;;;;;4934297;29;19915;-79
2022/11/29 09:41:23;;;;;;;;;;;;;;;;;;4935612;29;19923;-79
2022/11/29 09:43:48;;;;;;;;;;;;;;;;;;4935483;29;19961;-80
2022/11/29 09:46:16;;;;;;;;;;;;;;;;;;4936136;29;19922;-80
2022/11/29 09:48:42;;;;;;;;;;;;;;;;;;4935523;29;19915;-80
2022/11/29 09:51:07;;;;;;;;;;;;;;;;;;4937780;29;20299;-80
2022/11/29 09:53:33;;;;;;;;;;;;;;;;;;4952032;29;19922;-80
2022/11/29 09:55:58;;;;;;;;;;;;;;;;;;4957547;29;19918;-79
2022/11/29 09:58:25;;;;;;;;;;;;;;;;;;4957014;29;20009;-79
2022/11/29 10:00:50;;;;;;;;;;;;;;;;;;4963655;28;19915;-80
2022/11/29 10:03:18;;;;;;;;;;;;;;;;;;4961934;28;19938;-80
2022/11/29 10:05:45;;;;;;;;;;;;;;;;;;4964516;29;19993;-81
2022/11/29 10:08:11;;;;;;;;;;;;;;;;;;4971138;29;19914;-82
2022/11/29 10:10:39;;;;;;;;;;;;;;;;;;4967148;29;19922;-82
2022/11/29 10:13:05;;;;;;;;;;;;;;;;;;4954690;29;19918;-82
2022/11/29 10:15:30;;;;;;;;;;;;;;;;;;4948636;29;19942;-78
2022/11/29 10:17:55;;;;;;;;;;;;;;;;;;4971020;29;19915;-83
2022/11/29 10:20:21;;;;;;;;;;;;;;;;;;4942281;29;19922;-82
2022/11/29 10:22:48;;;;;;;;;;;;;;;;;;4976630;29;19929;-83
2022/11/29 10:25:13;;;;;;;;;;;;;;;;;;4977131;29;19949;-82
2022/11/29 10:27:39;;;;;;;;;;;;;;;;;;4979164;28;19910;-83
2022/11/29 10:30:05;;;;;;;;;;;;;;;;;;4970066;28;19914;-78
2022/11/29 10:32:31;;;;;;;;;;;;;;;;;;4959705;28;20399;-77
2022/11/29 10:34:57;;;;;;;;;;;;;;;;;;4959795;28;19915;-84
2022/11/29 10:37:40;;;;;;;;;;;;;;;;;;4960989;29;20397;-80
2022/11/29 10:40:06;;;;;;;;;;;;;;;;;;4964806;29;19914;-80
2022/11/29 10:42:47;;;;;;;;;;;;;;;;;;4964142;28;20101;-80
2022/11/29 10:45:12;;;;;;;;;;;;;;;;;;4943184;29;19915;-81
2022/11/29 10:47:38;;;;;;;;;;;;;;;;;;4944158;29;19990;-80
2022/11/29 10:50:03;;;;;;;;;;;;;;;;;;4943971;29;20512;-80
2022/11/29 10:52:29;;;;;;;;;;;;;;;;;;4948418;29;20009;-80
2022/11/29 10:54:54;;;;;;;;;;;;;;;;;;4963477;29;19982;-81
2022/11/29 10:57:20;;;;;;;;;;;;;;;;;;4964928;29;19930;-81
2022/11/29 10:59:45;;;;;;;;;;;;;;;;;;4963467;29;20250;-82
2022/11/29 11:02:10;;;;;;;;;;;;;;;;;;4953831;29;20402;-83
2022/11/29 11:04:36;;;;;;;;;;;;;;;;;;4935549;29;19958;-84
2022/11/29 11:07:01;;;;;;;;;;;;;;;;;;4937705;29;19918;-85
2022/11/29 11:09:26;;;;;;;;;;;;;;;;;;4943423;29;20357;-85
2022/11/29 11:11:52;;;;;;;;;;;;;;;;;;4960118;29;19918;-86
2022/11/29 11:14:17;;;;;;;;;;;;;;;;;;4936384;29;19965;-85
2022/11/29 11:16:42;;;;;;;;;;;;;;;;;;4939319;29;20101;-86
2022/11/29 11:19:08;;;;;;;;;;;;;;;;;;4953532;28;19918;-84
2022/11/29 11:21:33;;;;;;;;;;;;;;;;;;4941707;29;19954;-88
2022/11/29 11:23:59;;;;;;;;;;;;;;;;;;4942132;29;19922;-84
2022/11/29 11:26:24;;;;;;;;;;;;;;;;;;4983373;28;19914;-86
2022/11/29 11:28:49;;;;;;;;;;;;;;;;;;4968083;29;19914;-83
2022/11/29 11:31:15;;;;;;;;;;;;;;;;;;4941087;29;19919;-87
2022/11/29 11:33:40;;;;;;;;;;;;;;;;;;4936171;29;19922;-86
2022/11/29 11:36:06;;;;;;;;;;;;;;;;;;4945617;28;19937;-84
2022/11/29 11:38:31;;;;;;;;;;;;;;;;;;4955035;29;19925;-86
2022/11/29 11:40:56;;;;;;;;;;;;;;;;;;4954728;29;19958;-87
2022/11/29 11:43:22;;;;;;;;;;;;;;;;;;4937683;29;19921;-84
2022/11/29 11:45:47;;;;;;;;;;;;;;;;;;4954658;29;19915;-88
2022/11/29 11:48:13;;;;;;;;;;;;;;;;;;4954771;29;20321;-86
2022/11/29 11:50:38;;;;;;;;;;;;;;;;;;4954001;29;19925;-84
2022/11/29 11:53:03;;;;;;;;;;;;;;;;;;4954890;28;19926;-80
2022/11/29 11:55:29;;;;;;;;;;;;;;;;;;4954167;28;19921;-82
2022/11/29 11:57:54;;;;;;;;;;;;;;;;;;4954697;29;20001;-83
2022/11/29 12:00:20;;;;;;;;;;;;;;;;;;4955172;28;20029;-87
2022/11/29 12:02:45;;;;;;;;;;;;;;;;;;4954084;29;19933;-86
2022/11/29 12:05:11;;;;;;;;;;;;;;;;;;4966543;28;19914;-82
2022/11/29 12:07:36;;;;;;;;;;;;;;;;;;4950759;29;20279;-83
2022/11/29 12:10:01;;;;;;;;;;;;;;;;;;4943790;29;19925;-83
2022/11/29 12:12:27;;;;;;;;;;;;;;;;;;4948892;29;20024;-87
2022/11/29 12:14:52;;;;;;;;;;;;;;;;;;4953827;29;20271;-86
2022/11/29 12:17:18;;;;;;;;;;;;;;;;;;4954697;29;19921;-87
2022/11/29 12:19:43;;;;;;;;;;;;;;;;;;4955107;28;19919;-88
2022/11/29 12:22:08;;;;;;;;;;;;;;;;;;4954116;29;19965;-87
2022/11/29 12:24:34;;;;;;;;;;;;;;;;;;4958037;29;19977;-86
2022/11/29 12:26:59;;;;;;;;;;;;;;;;;;4961790;28;20301;-89
2022/11/29 12:29:25;;;;;;;;;;;;;;;;;;4958936;28;19914;-82
2022/11/29 12:31:53;;;;;;;;;;;;;;;;;;4957893;29;19918;-87
2022/11/29 12:34:22;;;;;;;;;;;;;;;;;;4962064;29;19965;-83
2022/11/29 12:36:47;;;;;;;;;;;;;;;;;;4965509;29;19915;-85
2022/11/29 12:39:13;;;;;;;;;;;;;;;;;;4960788;29;19915;-86
2022/11/29 12:41:38;;;;;;;;;;;;;;;;;;4957391;28;19947;-86
2022/11/29 12:44:04;;;;;;;;;;;;;;;;;;4939038;29;19942;-87
2022/11/29 12:46:29;;;;;;;;;;;;;;;;;;4954177;28;19914;-87
2022/11/29 12:48:55;;;;;;;;;;;;;;;;;;4952933;29;19914;-85
2022/11/29 12:51:20;;;;;;;;;;;;;;;;;;4954164;28;19938;-85
2022/11/29 12:53:45;;;;;;;;;;;;;;;;;;4953763;29;19921;-85
2022/11/29 12:56:12;;;;;;;;;;;;;;;;;;4952768;29;19922;-87
2022/11/29 12:58:37;;;;;;;;;;;;;;;;;;4954042;28;19918;-88
2022/11/29 13:01:06;;;;;;;;;;;;;;;;;;4954751;28;20330;-85
2022/11/29 13:03:31;;;;;;;;;;;;;;;;;;4952985;28;20542;-85
2022/11/29 13:05:56;;;;;;;;;;;;;;;;;;4953951;29;19910;-86
2022/11/29 13:08:22;;;;;;;;;;;;;;;;;;4952776;29;20354;-83
2022/11/29 13:10:47;;;;;;;;;;;;;;;;;;4953881;29;20061;-84
2022/11/29 13:13:12;;;;;;;;;;;;;;;;;;4953437;29;20267;-87
2022/11/29 13:15:39;;;;;;;;;;;;;;;;;;4952663;29;19915;-85
2022/11/29 13:18:04;;;;;;;;;;;;;;;;;;4953111;29;19934;-84
2022/11/29 13:20:29;;;;;;;;;;;;;;;;;;4953200;29;20125;-86
2022/11/29 13:22:55;;;;;;;;;;;;;;;;;;4951603;29;20024;-85
2022/11/29 13:25:20;;;;;;;;;;;;;;;;;;4953349;29;20453;-86
2022/11/29 13:27:46;;;;;;;;;;;;;;;;;;4953518;28;19914;-84
2022/11/29 13:30:11;;;;;;;;;;;;;;;;;;4952070;29;19980;-86
2022/11/29 13:32:36;;;;;;;;;;;;;;;;;;4951559;29;20355;-83
2022/11/29 13:35:02;;;;;;;;;;;;;;;;;;4952781;29;19989;-84
2022/11/29 13:37:27;;;;;;;;;;;;;;;;;;4954240;28;20366;-83
2022/11/29 13:39:52;;;;;;;;;;;;;;;;;;4957354;29;19915;-85
2022/11/29 13:42:18;;;;;;;;;;;;;;;;;;4955903;29;20055;-84
2022/11/29 13:44:44;;;;;;;;;;;;;;;;;;4957163;28;20005;-84
2022/11/29 13:47:10;;;;;;;;;;;;;;;;;;4957552;28;19970;-87
2022/11/29 13:49:35;;;;;;;;;;;;;;;;;;4940047;29;20422;-85
2022/11/29 13:52:01;;;;;;;;;;;;;;;;;;4955216;29;20024;-86
2022/11/29 13:54:26;;;;;;;;;;;;;;;;;;4955690;29;19915;-85
2022/11/29 13:56:51;;;;;;;;;;;;;;;;;;4957612;28;20021;-86
2022/11/29 13:59:17;;;;;;;;;;;;;;;;;;4956434;29;20528;-83
2022/11/29 14:01:42;;;;;;;;;;;;;;;;;;4957977;28;19919;-84
2022/11/29 14:04:41;;;;;;;;;;;;;;;;;;4957112;29;19919;-84
2022/11/29 14:07:01;;;;;;;;;;;;;;;;;;4953354;28;19914;-86
2022/11/29 14:09:26;;;;;;;;;;;;;;;;;;4955608;29;20378;-85
2022/11/29 14:11:51;;;;;;;;;;;;;;;;;;4955686;29;20327;-82
2022/11/29 14:14:17;;;;;;;;;;;;;;;;;;4956138;29;19961;-86
2022/11/29 14:16:42;;;;;;;;;;;;;;;;;;4957662;29;20460;-83
2022/11/29 14:19:08;;;;;;;;;;;;;;;;;;4957066;29;19919;-83
2022/11/29 14:21:33;;;;;;;;;;;;;;;;;;4957161;29;19922;-83
2022/11/29 14:23:58;;;;;;;;;;;;;;;;;;4939523;29;19954;-82
2022/11/29 14:26:24;;;;;;;;;;;;;;;;;;4940959;29;19953;-86
2022/11/29 14:28:49;;;;;;;;;;;;;;;;;;4936100;29;19919;-84
2022/11/29 14:31:14;;;;;;;;;;;;;;;;;;4937345;29;19921;-83
2022/11/29 14:33:40;;;;;;;;;;;;;;;;;;4937423;29;19915;-85
2022/11/29 14:36:05;;;;;;;;;;;;;;;;;;4937622;29;20039;-84
2022/11/29 14:38:31;;;;;;;;;;;;;;;;;;4937880;29;19946;-85
2022/11/29 14:40:56;;;;;;;;;;;;;;;;;;4943413;29;20337;-84
2022/11/29 14:43:21;;;;;;;;;;;;;;;;;;4955922;28;19921;-84
2022/11/29 14:45:47;;;;;;;;;;;;;;;;;;4956550;29;20326;-83
2022/11/29 14:48:12;;;;;;;;;;;;;;;;;;4939715;28;20306;-85
2022/11/29 14:50:38;;;;;;;;;;;;;;;;;;4958306;29;19918;-85
2022/11/29 14:53:03;;;;;;;;;;;;;;;;;;4965800;29;19914;-84
2022/11/29 14:55:29;;;;;;;;;;;;;;;;;;4962976;29;20346;-84
2022/11/29 14:57:54;;;;;;;;;;;;;;;;;;4955869;28;19914;-82
2022/11/29 15:00:20;;;;;;;;;;;;;;;;;;4956853;29;19957;-85
2022/11/29 15:02:45;;;;;;;;;;;;;;;;;;4955304;28;19918;-87
2022/11/29 15:05:10;;;;;;;;;;;;;;;;;;4954759;29;19942;-85
2022/11/29 15:07:36;;;;;;;;;;;;;;;;;;4956067;29;19914;-85
2022/11/29 15:10:01;;;;;;;;;;;;;;;;;;4955082;29;19910;-85
2022/11/29 15:12:27;;;;;;;;;;;;;;;;;;4955058;29;20450;-86
2022/11/29 15:14:52;;;;;;;;;;;;;;;;;;4955050;29;20212;-85
2022/11/29 15:17:17;;;;;;;;;;;;;;;;;;4955218;29;19957;-84
2022/11/29 15:19:43;;;;;;;;;;;;;;;;;;4955848;29;19914;-87
2022/11/29 15:22:09;;;;;;;;;;;;;;;;;;4955686;28;19922;-84
2022/11/29 15:24:34;;;;;;;;;;;;;;;;;;4955505;29;19922;-85
2022/11/29 15:26:59;;;;;;;;;;;;;;;;;;4955794;29;20422;-87
2022/11/29 15:29:25;;;;;;;;;;;;;;;;;;4954748;29;19941;-87
2022/11/29 15:31:50;;;;;;;;;;;;;;;;;;4956161;29;20278;-87
2022/11/29 15:34:16;;;;;;;;;;;;;;;;;;4953896;29;19910;-85
2022/11/29 15:36:41;;;;;;;;;;;;;;;;;;4955557;29;20331;-86
2022/11/29 15:39:07;;;;;;;;;;;;;;;;;;4955153;29;19922;-87
2022/11/29 15:41:47;;;;;;;;;;;;;;;;;;4953946;29;20005;-86
2022/11/29 15:44:13;;;;;;;;;;;;;;;;;;4937679;29;19954;-86
2022/11/29 15:46:38;;;;;;;;;;;;;;;;;;4953439;29;19926;-86
2022/11/29 15:49:03;;;;;;;;;;;;;;;;;;4955350;29;20005;-85
2022/11/29 15:51:29;;;;;;;;;;;;;;;;;;4953864;29;20392;-87
2022/11/29 15:53:55;;;;;;;;;;;;;;;;;;4955172;29;19911;-86
2022/11/29 15:56:20;;;;;;;;;;;;;;;;;;4955824;28;19921;-86
2022/11/29 15:58:45;;;;;;;;;;;;;;;;;;4956137;29;20363;-83
2022/11/29 16:01:11;;;;;;;;;;;;;;;;;;4962104;28;19918;-86
2022/11/29 16:03:36;;;;;;;;;;;;;;;;;;4964546;28;19914;-86
2022/11/29 16:06:02;;;;;;;;;;;;;;;;;;4956929;29;19921;-83
2022/11/29 16:08:27;;;;;;;;;;;;;;;;;;4955462;29;19918;-87
2022/11/29 16:10:53;;;;;;;;;;;;;;;;;;4955280;29;19914;-85
2022/11/29 16:13:18;;;;;;;;;;;;;;;;;;4955102;29;19918;-89
2022/11/29 16:15:44;;;;;;;;;;;;;;;;;;4954719;29;19922;-87
2022/11/29 16:18:09;;;;;;;;;;;;;;;;;;4954134;28;20307;-88
2022/11/29 16:20:34;;;;;;;;;;;;;;;;;;4954004;29;19915;-88
2022/11/29 16:23:00;;;;;;;;;;;;;;;;;;4937238;29;20025;-85
2022/11/29 16:25:26;;;;;;;;;;;;;;;;;;4954683;29;19966;-86
2022/11/29 16:27:51;;;;;;;;;;;;;;;;;;4954744;28;19910;-86
2022/11/29 16:30:17;;;;;;;;;;;;;;;;;;4954430;29;20401;-92
2022/11/29 16:32:42;;;;;;;;;;;;;;;;;;4937839;29;19918;-90
2022/11/29 16:35:08;;;;;;;;;;;;;;;;;;4955059;28;19918;-84
2022/11/29 16:37:33;;;;;;;;;;;;;;;;;;4953536;29;20018;-86